Time;durP1;ratioP1;P1;durP2;ratioP2;P2;SDS_P1;SDS_P2;PMS_P1;PMS_P2;Temp;Humidity;BMP_temperature;BMP_pressure;BME280_temperature;BME280_humidity;BME280_pressure;Samples;Min_cycle;Max_cycle;Signal;HPM_P1;HPM_P2
2023/05/10 00:00:11;;;;;;;60.00;30.42;;;;;;;;;;5025558;28;100309;-81
2023/05/10 00:02:40;;;;;;;58.80;31.65;;;;;;;;;;5025137;28;100926;-82
2023/05/10 00:05:07;;;;;;;64.03;31.92;;;;;;;;;;5026300;28;99526;-82
2023/05/10 00:07:33;;;;;;;64.80;32.78;;;;;;;;;;5027395;28;100454;-82
2023/05/10 00:10:00;;;;;;;67.78;32.55;;;;;;;;;;5025257;28;100107;-83
2023/05/10 00:12:26;;;;;;;69.72;33.08;;;;;;;;;;5023323;28;99247;-82
2023/05/10 00:14:52;;;;;;;71.00;32.53;;;;;;;;;;5006430;28;99879;-84
2023/05/10 00:17:19;;;;;;;74.68;33.15;;;;;;;;;;5018359;28;100112;-82
2023/05/10 00:19:45;;;;;;;65.90;32.53;;;;;;;;;;5029069;28;99258;-83
2023/05/10 00:22:12;;;;;;;70.28;31.80;;;;;;;;;;5024286;28;100231;-81
2023/05/10 00:24:38;;;;;;;74.78;34.05;;;;;;;;;;5025191;28;101253;-80
2023/05/10 00:27:09;;;;;;;74.20;33.00;;;;;;;;;;5025891;28;99938;-83
2023/05/10 00:29:35;;;;;;;71.78;33.60;;;;;;;;;;5024691;28;100073;-82
2023/05/10 00:32:02;;;;;;;80.78;37.03;;;;;;;;;;5025906;28;99005;-81
2023/05/10 00:34:29;;;;;;;81.00;36.65;;;;;;;;;;5023445;28;99400;-82
2023/05/10 00:36:56;;;;;;;82.80;36.70;;;;;;;;;;5015237;28;99554;-82
2023/05/10 00:39:22;;;;;;;103.55;40.78;;;;;;;;;;5004158;28;99384;-82
2023/05/10 00:41:48;;;;;;;89.47;40.20;;;;;;;;;;5009787;28;101739;-80
2023/05/10 00:44:18;;;;;;;98.35;42.67;;;;;;;;;;5006305;28;99328;-81
2023/05/10 00:46:45;;;;;;;89.05;40.35;;;;;;;;;;5025844;28;99077;-82
2023/05/10 00:49:12;;;;;;;98.63;42.45;;;;;;;;;;5006979;28;100103;-81
2023/05/10 00:51:39;;;;;;;144.20;50.25;;;;;;;;;;5006046;28;100330;-81
2023/05/10 00:54:07;;;;;;;121.50;50.33;;;;;;;;;;5025002;28;100044;-82
2023/05/10 00:56:34;;;;;;;123.72;50.00;;;;;;;;;;5007252;28;101996;-81
2023/05/10 00:59:01;;;;;;;140.38;51.72;;;;;;;;;;5024725;28;99096;-81
2023/05/10 01:01:28;;;;;;;191.68;56.15;;;;;;;;;;5025104;28;98878;-81
2023/05/10 01:03:54;;;;;;;158.43;56.10;;;;;;;;;;5010773;28;101818;-82
2023/05/10 01:06:21;;;;;;;123.28;52.85;;;;;;;;;;5024598;28;99495;-81
2023/05/10 01:08:47;;;;;;;171.98;57.78;;;;;;;;;;5024738;28;98798;-81
2023/05/10 01:11:14;;;;;;;135.85;54.80;;;;;;;;;;5024066;28;99489;-81
2023/05/10 01:13:43;;;;;;;168.75;57.55;;;;;;;;;;5004614;28;99979;-82
2023/05/10 01:16:10;;;;;;;143.93;56.38;;;;;;;;;;5006519;28;100923;-81
2023/05/10 01:18:38;;;;;;;160.07;55.33;;;;;;;;;;5006156;28;101248;-81
2023/05/10 01:21:13;;;;;;;142.20;55.63;;;;;;;;;;5006928;28;99106;-82
2023/05/10 01:23:45;;;;;;;158.23;58.08;;;;;;;;;;5023857;28;100473;-81
2023/05/10 01:26:30;;;;;;;163.15;57.67;;;;;;;;;;5028106;28;99121;-81
2023/05/10 01:29:00;;;;;;;167.73;57.00;;;;;;;;;;5006462;28;101033;-82
2023/05/10 01:31:26;;;;;;;142.90;56.70;;;;;;;;;;5024186;28;99280;-80
2023/05/10 01:33:55;;;;;;;144.52;55.35;;;;;;;;;;5024400;27;100029;-81
2023/05/10 01:36:51;;;;;;;149.35;54.40;;;;;;;;;;5024622;28;99139;-82
2023/05/10 01:39:24;;;;;;;144.70;54.75;;;;;;;;;;4992555;28;101719;-80
2023/05/10 01:41:54;;;;;;;151.85;55.38;;;;;;;;;;5004902;28;101671;-82
2023/05/10 01:44:35;;;;;;;146.00;54.45;;;;;;;;;;5024979;28;100242;-81
2023/05/10 01:47:06;;;;;;;125.57;52.63;;;;;;;;;;5030874;28;100719;-81
2023/05/10 01:49:36;;;;;;;126.25;52.85;;;;;;;;;;5028140;28;100465;-81
2023/05/10 01:52:13;;;;;;;127.18;52.15;;;;;;;;;;5010925;28;100823;-81
2023/05/10 01:54:42;;;;;;;139.60;52.95;;;;;;;;;;5027195;28;99686;-81
2023/05/10 01:57:12;;;;;;;139.88;54.88;;;;;;;;;;5028814;28;99005;-82
2023/05/10 01:59:40;;;;;;;142.70;53.13;;;;;;;;;;5009047;28;100420;-82
2023/05/10 02:02:11;;;;;;;134.00;55.38;;;;;;;;;;5009382;28;101673;-81
2023/05/10 02:04:39;;;;;;;135.73;53.33;;;;;;;;;;5009504;28;99753;-81
2023/05/10 02:07:06;;;;;;;126.22;52.55;;;;;;;;;;5030061;28;99363;-80
2023/05/10 02:09:34;;;;;;;123.60;52.70;;;;;;;;;;5034331;28;99301;-81
2023/05/10 02:12:02;;;;;;;122.60;51.50;;;;;;;;;;5036735;28;98497;-82
2023/05/10 02:14:30;;;;;;;141.20;53.47;;;;;;;;;;5012887;28;102164;-82
2023/05/10 02:16:58;;;;;;;129.82;52.42;;;;;;;;;;5031803;28;98953;-82
2023/05/10 02:19:27;;;;;;;141.75;54.03;;;;;;;;;;5036022;28;99340;-81
2023/05/10 02:21:56;;;;;;;133.45;50.33;;;;;;;;;;5022818;28;101503;-81
2023/05/10 02:24:24;;;;;;;139.88;53.55;;;;;;;;;;5020910;28;99476;-80
2023/05/10 02:26:55;;;;;;;139.45;54.95;;;;;;;;;;5040784;28;99146;-80
2023/05/10 02:29:23;;;;;;;135.57;52.90;;;;;;;;;;5034177;28;100384;-82
2023/05/10 02:31:51;;;;;;;130.00;54.15;;;;;;;;;;5030214;28;100841;-81
2023/05/10 02:34:17;;;;;;;142.98;54.22;;;;;;;;;;5026395;28;99949;-81
2023/05/10 02:36:46;;;;;;;150.07;54.38;;;;;;;;;;4999685;28;100936;-81
2023/05/10 02:39:13;;;;;;;139.55;54.33;;;;;;;;;;5007614;28;99116;-81
2023/05/10 02:41:40;;;;;;;143.93;54.33;;;;;;;;;;5020243;28;101539;-81
2023/05/10 02:44:07;;;;;;;134.38;54.47;;;;;;;;;;5008508;28;98925;-81
2023/05/10 02:46:34;;;;;;;130.63;52.72;;;;;;;;;;4989427;28;99448;-80
2023/05/10 02:49:01;;;;;;;136.80;53.15;;;;;;;;;;4990328;28;100240;-81
2023/05/10 02:51:31;;;;;;;121.43;49.78;;;;;;;;;;5004609;28;101113;-81
2023/05/10 02:54:01;;;;;;;126.85;51.30;;;;;;;;;;5008111;28;102874;-81
2023/05/10 02:56:32;;;;;;;121.60;51.53;;;;;;;;;;5004435;28;99873;-81
2023/05/10 02:58:59;;;;;;;125.00;52.47;;;;;;;;;;5006799;28;99099;-81
2023/05/10 03:01:25;;;;;;;120.72;50.70;;;;;;;;;;5006772;28;98957;-82
2023/05/10 03:03:51;;;;;;;116.60;48.97;;;;;;;;;;5006890;28;100155;-82
2023/05/10 03:06:18;;;;;;;114.63;47.65;;;;;;;;;;5006602;28;99561;-82
2023/05/10 03:08:45;;;;;;;117.25;49.63;;;;;;;;;;5007179;28;98654;-82
2023/05/10 03:11:28;;;;;;;101.35;45.63;;;;;;;;;;5007700;28;101206;-80
2023/05/10 03:14:08;;;;;;;139.60;52.17;;;;;;;;;;5006952;28;100352;-81
2023/05/10 03:16:46;;;;;;;146.73;53.88;;;;;;;;;;5030225;28;98788;-81
2023/05/10 03:19:19;;;;;;;146.15;51.97;;;;;;;;;;5007505;28;102991;-81
2023/05/10 03:21:49;;;;;;;152.05;53.55;;;;;;;;;;5008905;28;101280;-81
2023/05/10 03:24:18;;;;;;;146.75;50.70;;;;;;;;;;5025584;28;98704;-80
2023/05/10 03:26:47;;;;;;;154.35;52.30;;;;;;;;;;5007665;28;101211;-80
2023/05/10 03:29:17;;;;;;;140.15;50.17;;;;;;;;;;5008252;28;101667;-80
2023/05/10 03:31:43;;;;;;;129.40;50.63;;;;;;;;;;5008028;28;101428;-81
2023/05/10 03:34:10;;;;;;;155.70;53.60;;;;;;;;;;5026374;28;100032;-81
2023/05/10 03:36:36;;;;;;;167.38;54.65;;;;;;;;;;5018370;28;100168;-81
2023/05/10 03:39:03;;;;;;;170.45;56.63;;;;;;;;;;5008232;28;98874;-80
2023/05/10 03:41:29;;;;;;;176.65;57.17;;;;;;;;;;5016123;28;99356;-80
2023/05/10 03:43:57;;;;;;;170.73;54.65;;;;;;;;;;5007103;28;100718;-80
2023/05/10 03:46:23;;;;;;;169.18;54.42;;;;;;;;;;5025216;28;99378;-81
2023/05/10 03:48:50;;;;;;;171.25;55.42;;;;;;;;;;5026514;28;100410;-81
2023/05/10 03:51:17;;;;;;;187.23;58.53;;;;;;;;;;5007654;28;101042;-81
2023/05/10 03:53:43;;;;;;;175.23;56.80;;;;;;;;;;5006950;28;100912;-81
2023/05/10 03:56:09;;;;;;;168.52;58.03;;;;;;;;;;5026391;28;98877;-81
2023/05/10 03:58:36;;;;;;;156.68;54.05;;;;;;;;;;5010846;28;100298;-81
2023/05/10 04:01:03;;;;;;;174.70;56.28;;;;;;;;;;5026067;28;98711;-81
2023/05/10 04:03:29;;;;;;;160.90;55.97;;;;;;;;;;5007597;28;101439;-81
2023/05/10 04:06:00;;;;;;;156.82;55.53;;;;;;;;;;5025774;28;101313;-81
2023/05/10 04:08:26;;;;;;;164.13;57.13;;;;;;;;;;5005974;28;101913;-81
2023/05/10 04:10:53;;;;;;;169.63;54.35;;;;;;;;;;5025359;28;99804;-81
2023/05/10 04:13:19;;;;;;;187.32;58.90;;;;;;;;;;5024899;28;99339;-81
2023/05/10 04:15:46;;;;;;;183.80;59.00;;;;;;;;;;5006822;28;100074;-81
2023/05/10 04:18:12;;;;;;;206.40;58.08;;;;;;;;;;5005554;28;99244;-80
2023/05/10 04:20:38;;;;;;;169.30;56.72;;;;;;;;;;5008544;28;100885;-81
2023/05/10 04:23:05;;;;;;;181.43;55.75;;;;;;;;;;5004904;28;100088;-81
2023/05/10 04:25:33;;;;;;;173.43;57.13;;;;;;;;;;5005921;28;99493;-81
2023/05/10 04:27:59;;;;;;;209.73;60.33;;;;;;;;;;5005508;28;99984;-81
2023/05/10 04:30:28;;;;;;;234.45;63.58;;;;;;;;;;5004846;28;99959;-81
2023/05/10 04:32:54;;;;;;;215.70;62.05;;;;;;;;;;5023606;28;102907;-81
2023/05/10 04:35:21;;;;;;;182.02;60.63;;;;;;;;;;5023803;28;98833;-80
2023/05/10 04:37:47;;;;;;;204.02;60.00;;;;;;;;;;5007797;28;100181;-81
2023/05/10 04:40:14;;;;;;;215.70;62.58;;;;;;;;;;5009923;28;100321;-81
2023/05/10 04:42:43;;;;;;;257.33;65.00;;;;;;;;;;5027100;28;99489;-80
2023/05/10 04:45:10;;;;;;;220.13;63.22;;;;;;;;;;5025457;28;100299;-80
2023/05/10 04:47:36;;;;;;;237.93;64.60;;;;;;;;;;5024913;28;100558;-81
2023/05/10 04:50:03;;;;;;;233.73;65.55;;;;;;;;;;5024574;28;100075;-80
2023/05/10 04:52:30;;;;;;;195.05;60.03;;;;;;;;;;5024863;28;99634;-80
2023/05/10 04:54:56;;;;;;;179.25;59.75;;;;;;;;;;5024663;28;99998;-81
2023/05/10 04:57:22;;;;;;;176.32;55.63;;;;;;;;;;5022727;28;100461;-81
2023/05/10 04:59:51;;;;;;;153.02;56.55;;;;;;;;;;5024882;28;99624;-80
2023/05/10 05:02:17;;;;;;;183.57;58.58;;;;;;;;;;5025056;28;100025;-81
2023/05/10 05:04:45;;;;;;;156.05;56.60;;;;;;;;;;5026912;27;100252;-81
2023/05/10 05:07:12;;;;;;;176.23;57.97;;;;;;;;;;5025349;28;100036;-81
2023/05/10 05:09:38;;;;;;;160.55;56.60;;;;;;;;;;5024370;28;100048;-80
2023/05/10 05:12:05;;;;;;;159.48;56.42;;;;;;;;;;5004155;28;100771;-81
2023/05/10 05:14:31;;;;;;;178.77;59.40;;;;;;;;;;5004754;28;102213;-81
2023/05/10 05:16:58;;;;;;;154.55;56.58;;;;;;;;;;5004481;28;99084;-81
2023/05/10 05:19:25;;;;;;;150.93;55.13;;;;;;;;;;5004313;28;99035;-80
2023/05/10 05:21:52;;;;;;;150.18;56.70;;;;;;;;;;5010085;28;100013;-82
2023/05/10 05:24:18;;;;;;;159.30;55.78;;;;;;;;;;5027434;28;100907;-81
2023/05/10 05:26:44;;;;;;;169.85;57.08;;;;;;;;;;5013125;28;100412;-81
2023/05/10 05:29:11;;;;;;;163.38;56.97;;;;;;;;;;5028920;28;100679;-80
2023/05/10 05:31:37;;;;;;;157.98;56.03;;;;;;;;;;5027730;28;100163;-81
2023/05/10 05:34:04;;;;;;;164.07;54.15;;;;;;;;;;5028127;28;98893;-82
2023/05/10 05:36:31;;;;;;;149.75;55.10;;;;;;;;;;5020710;28;99556;-81
2023/05/10 05:38:57;;;;;;;141.40;52.28;;;;;;;;;;5008988;28;99504;-81
2023/05/10 05:41:24;;;;;;;151.00;51.75;;;;;;;;;;5020155;28;100237;-80
2023/05/10 05:43:50;;;;;;;133.25;50.38;;;;;;;;;;5027791;28;99353;-80
2023/05/10 05:46:17;;;;;;;118.03;48.03;;;;;;;;;;5026038;28;100871;-81
2023/05/10 05:48:44;;;;;;;116.82;46.63;;;;;;;;;;5031001;28;98528;-81
2023/05/10 05:51:11;;;;;;;109.90;45.70;;;;;;;;;;5027865;28;99635;-81
2023/05/10 05:53:37;;;;;;;108.28;45.80;;;;;;;;;;5026598;27;100072;-81
2023/05/10 05:56:04;;;;;;;110.97;46.40;;;;;;;;;;5027406;28;99952;-82
2023/05/10 05:58:30;;;;;;;112.05;47.47;;;;;;;;;;5028111;28;100506;-82
2023/05/10 06:00:57;;;;;;;110.30;47.15;;;;;;;;;;5025281;28;99990;-81
2023/05/10 06:03:23;;;;;;;99.35;44.63;;;;;;;;;;5026907;28;100137;-81
2023/05/10 06:05:50;;;;;;;110.47;47.30;;;;;;;;;;5025064;27;99494;-82
2023/05/10 06:08:16;;;;;;;107.07;46.75;;;;;;;;;;5030394;28;100289;-82
2023/05/10 06:10:43;;;;;;;110.05;48.15;;;;;;;;;;5023108;27;100086;-82
2023/05/10 06:13:09;;;;;;;105.57;44.80;;;;;;;;;;5027771;28;100025;-81
2023/05/10 06:15:36;;;;;;;100.28;45.55;;;;;;;;;;5025648;27;100283;-81
2023/05/10 06:18:02;;;;;;;107.88;44.33;;;;;;;;;;5025038;28;100354;-82
2023/05/10 06:20:31;;;;;;;83.88;39.10;;;;;;;;;;5013937;27;98923;-80
2023/05/10 06:22:58;;;;;;;84.40;39.80;;;;;;;;;;5024498;27;100000;-80
2023/05/10 06:25:24;;;;;;;71.38;36.35;;;;;;;;;;5010704;27;99625;-82
2023/05/10 06:27:55;;;;;;;74.50;36.05;;;;;;;;;;5034833;27;100237;-82
2023/05/10 06:30:26;;;;;;;62.65;33.22;;;;;;;;;;5029215;27;99354;-81
2023/05/10 06:32:53;;;;;;;68.40;31.90;;;;;;;;;;5024451;28;100150;-82
2023/05/10 06:35:20;;;;;;;60.25;30.67;;;;;;;;;;5021915;27;100100;-80
2023/05/10 06:37:46;;;;;;;57.38;31.55;;;;;;;;;;5026147;27;100084;-82
2023/05/10 06:40:13;;;;;;;70.75;32.10;;;;;;;;;;5025145;27;99581;-82
2023/05/10 06:42:39;;;;;;;54.45;27.42;;;;;;;;;;5007045;28;100491;-80
2023/05/10 06:45:06;;;;;;;50.03;27.88;;;;;;;;;;5027217;28;100294;-81
2023/05/10 06:47:32;;;;;;;41.17;26.38;;;;;;;;;;5027036;28;100018;-80
2023/05/10 06:50:00;;;;;;;39.55;23.83;;;;;;;;;;5025345;28;100041;-78
2023/05/10 06:52:26;;;;;;;39.17;23.85;;;;;;;;;;5027742;27;99836;-82
2023/05/10 06:54:53;;;;;;;39.78;23.38;;;;;;;;;;5024582;28;99200;-82
2023/05/10 06:57:20;;;;;;;35.25;21.55;;;;;;;;;;5024717;27;100375;-81
2023/05/10 07:00:00;;;;;;;33.88;20.85;;;;;;;;;;5025806;28;99320;-82
2023/05/10 07:02:26;;;;;;;32.33;20.23;;;;;;;;;;5024750;28;100838;-82
2023/05/10 07:04:53;;;;;;;27.77;18.42;;;;;;;;;;5025224;28;100348;-82
2023/05/10 07:07:20;;;;;;;31.48;19.55;;;;;;;;;;5024995;28;99106;-80
2023/05/10 07:09:47;;;;;;;27.08;17.48;;;;;;;;;;5025433;28;100358;-81
2023/05/10 07:12:13;;;;;;;22.75;16.60;;;;;;;;;;5026203;28;100139;-81
2023/05/10 07:14:41;;;;;;;35.47;17.88;;;;;;;;;;5030269;28;100114;-81
2023/05/10 07:17:08;;;;;;;26.98;16.73;;;;;;;;;;5026395;28;99838;-81
2023/05/10 07:19:35;;;;;;;26.67;16.33;;;;;;;;;;5025334;28;99088;-81
2023/05/10 07:22:01;;;;;;;23.05;16.35;;;;;;;;;;5026771;28;99205;-81
2023/05/10 07:24:27;;;;;;;28.02;17.42;;;;;;;;;;5020823;27;100848;-81
2023/05/10 07:26:54;;;;;;;25.35;15.77;;;;;;;;;;5025540;28;100708;-81
2023/05/10 07:29:20;;;;;;;20.52;13.23;;;;;;;;;;5026276;28;100117;-80
2023/05/10 07:31:47;;;;;;;23.30;15.20;;;;;;;;;;5021965;27;99236;-81
2023/05/10 07:34:13;;;;;;;27.95;16.65;;;;;;;;;;5024301;27;99947;-80
2023/05/10 07:36:40;;;;;;;24.58;16.17;;;;;;;;;;5028983;28;99407;-82
2023/05/10 07:39:06;;;;;;;23.85;16.38;;;;;;;;;;5030876;27;98958;-81
2023/05/10 07:41:33;;;;;;;23.70;16.65;;;;;;;;;;5021319;27;100038;-81
2023/05/10 07:44:01;;;;;;;22.70;15.73;;;;;;;;;;5024683;28;100716;-81
2023/05/10 07:46:28;;;;;;;26.38;17.10;;;;;;;;;;5023450;28;100182;-82
2023/05/10 07:48:55;;;;;;;23.23;17.30;;;;;;;;;;5025936;28;100484;-82
2023/05/10 07:51:21;;;;;;;30.90;17.10;;;;;;;;;;5017564;27;100057;-80
2023/05/10 07:53:48;;;;;;;30.42;18.58;;;;;;;;;;5007580;27;99105;-79
2023/05/10 07:56:22;;;;;;;30.27;17.63;;;;;;;;;;5026897;28;99998;-79
2023/05/10 07:58:48;;;;;;;26.60;17.05;;;;;;;;;;5006086;28;99968;-82
2023/05/10 08:01:14;;;;;;;25.20;17.25;;;;;;;;;;5005220;28;100078;-81
2023/05/10 08:03:41;;;;;;;23.52;14.43;;;;;;;;;;5011431;28;100303;-82
2023/05/10 08:06:07;;;;;;;17.67;13.15;;;;;;;;;;5017366;28;99927;-80
2023/05/10 08:08:33;;;;;;;17.08;13.25;;;;;;;;;;5004544;28;98870;-80
2023/05/10 08:11:00;;;;;;;19.02;12.40;;;;;;;;;;5018860;28;100179;-81
2023/05/10 08:13:26;;;;;;;19.77;13.60;;;;;;;;;;5016880;27;99739;-81
2023/05/10 08:15:53;;;;;;;20.38;13.38;;;;;;;;;;5013407;28;100047;-79
2023/05/10 08:18:19;;;;;;;23.30;13.68;;;;;;;;;;5009232;28;100080;-81
2023/05/10 08:20:47;;;;;;;19.58;14.13;;;;;;;;;;5019454;27;99954;-79
2023/05/10 08:23:14;;;;;;;20.67;13.63;;;;;;;;;;5021057;28;100993;-80
2023/05/10 08:25:43;;;;;;;21.73;13.98;;;;;;;;;;5025034;27;100029;-80
2023/05/10 08:28:09;;;;;;;17.95;14.55;;;;;;;;;;5014579;28;98883;-80
2023/05/10 08:30:37;;;;;;;18.77;13.70;;;;;;;;;;5025924;28;99367;-79
2023/05/10 08:33:03;;;;;;;21.98;14.82;;;;;;;;;;5017031;27;100150;-79
2023/05/10 08:35:30;;;;;;;21.15;14.43;;;;;;;;;;5019556;27;101163;-82
2023/05/10 08:37:57;;;;;;;26.23;14.93;;;;;;;;;;5022734;27;101032;-80
2023/05/10 08:40:24;;;;;;;22.13;14.25;;;;;;;;;;5026432;28;100066;-82
2023/05/10 08:42:54;;;;;;;22.77;14.02;;;;;;;;;;5023851;28;99496;-80
2023/05/10 08:45:22;;;;;;;20.55;14.65;;;;;;;;;;5024166;28;101249;-81
2023/05/10 08:47:49;;;;;;;20.05;14.45;;;;;;;;;;5023563;28;99921;-80
2023/05/10 08:50:19;;;;;;;17.40;14.43;;;;;;;;;;5010866;27;99301;-82
2023/05/10 08:52:47;;;;;;;19.63;15.15;;;;;;;;;;5022099;27;100028;-78
2023/05/10 08:55:15;;;;;;;16.83;14.95;;;;;;;;;;5018984;27;99290;-79
2023/05/10 08:57:41;;;;;;;16.73;13.27;;;;;;;;;;5015361;27;100251;-80
2023/05/10 09:00:09;;;;;;;16.80;14.20;;;;;;;;;;5010261;28;99957;-81
2023/05/10 09:02:36;;;;;;;18.63;14.10;;;;;;;;;;5011650;28;100585;-81
2023/05/10 09:05:04;;;;;;;16.88;13.73;;;;;;;;;;5007949;28;98880;-82
2023/05/10 09:07:31;;;;;;;17.52;13.60;;;;;;;;;;5008428;28;99411;-82
2023/05/10 09:10:00;;;;;;;16.63;13.70;;;;;;;;;;5008319;28;100458;-81
2023/05/10 09:12:27;;;;;;;16.95;13.32;;;;;;;;;;5009527;28;100458;-81
2023/05/10 09:14:54;;;;;;;14.27;12.77;;;;;;;;;;5009596;28;100042;-82
2023/05/10 09:17:21;;;;;;;13.60;11.70;;;;;;;;;;5009648;28;100251;-81
2023/05/10 09:19:47;;;;;;;12.13;10.70;;;;;;;;;;5012873;28;99928;-82
2023/05/10 09:22:14;;;;;;;10.43;9.32;;;;;;;;;;5026262;28;99346;-81
2023/05/10 09:24:44;;;;;;;11.63;8.30;;;;;;;;;;5035093;28;98481;-82
2023/05/10 09:27:11;;;;;;;8.02;5.70;;;;;;;;;;5042421;27;99329;-81
2023/05/10 09:29:41;;;;;;;14.18;7.55;;;;;;;;;;5049055;27;99759;-81
2023/05/10 09:32:08;;;;;;;9.52;7.40;;;;;;;;;;5012967;28;99037;-80
2023/05/10 09:34:35;;;;;;;6.22;5.57;;;;;;;;;;5028796;28;99349;-81
2023/05/10 09:37:03;;;;;;;6.78;4.75;;;;;;;;;;5027965;28;100471;-82
2023/05/10 09:39:33;;;;;;;3.97;3.60;;;;;;;;;;5028425;28;99994;-82
2023/05/10 09:42:08;;;;;;;5.05;3.70;;;;;;;;;;5028534;28;99936;-81
2023/05/10 09:44:35;;;;;;;3.30;3.10;;;;;;;;;;5028887;28;99436;-80
2023/05/10 09:47:02;;;;;;;3.50;3.30;;;;;;;;;;5028414;28;99140;-80
2023/05/10 09:49:29;;;;;;;4.32;3.92;;;;;;;;;;5024333;28;99646;-82
2023/05/10 09:52:05;;;;;;;3.67;3.30;;;;;;;;;;5027114;28;99870;-81
2023/05/10 09:54:33;;;;;;;4.05;3.60;;;;;;;;;;5027625;28;100503;-81
2023/05/10 09:56:59;;;;;;;4.22;3.38;;;;;;;;;;5024469;28;99778;-79
2023/05/10 09:59:28;;;;;;;7.53;4.38;;;;;;;;;;5012411;28;99091;-79
2023/05/10 10:01:59;;;;;;;6.07;4.30;;;;;;;;;;5014115;28;99338;-79
2023/05/10 10:04:26;;;;;;;4.40;4.00;;;;;;;;;;5023962;27;100023;-79
2023/05/10 10:07:00;;;;;;;6.30;4.63;;;;;;;;;;5025593;27;99914;-80
2023/05/10 10:09:26;;;;;;;7.18;5.20;;;;;;;;;;5005826;28;99287;-80
2023/05/10 10:11:53;;;;;;;5.15;4.75;;;;;;;;;;5021611;28;100107;-81
2023/05/10 10:14:20;;;;;;;6.78;6.18;;;;;;;;;;5024431;28;100106;-79
2023/05/10 10:16:46;;;;;;;5.80;5.32;;;;;;;;;;5027022;28;100344;-79
2023/05/10 10:19:35;;;;;;;5.97;5.47;;;;;;;;;;5026948;28;98834;-79
2023/05/10 10:22:02;;;;;;;8.90;7.63;;;;;;;;;;5021127;28;99288;-79
2023/05/10 10:24:29;;;;;;;11.75;7.50;;;;;;;;;;5027018;28;99443;-80
2023/05/10 10:26:57;;;;;;;12.32;6.97;;;;;;;;;;5027055;28;100077;-80
2023/05/10 10:29:26;;;;;;;8.00;6.43;;;;;;;;;;5026417;28;99165;-80
2023/05/10 10:31:58;;;;;;;9.85;6.10;;;;;;;;;;5019162;28;100376;-81
2023/05/10 10:34:35;;;;;;;8.93;6.85;;;;;;;;;;5021689;27;99526;-81
2023/05/10 10:37:06;;;;;;;7.72;6.43;;;;;;;;;;5016726;28;100028;-79
2023/05/10 10:39:36;;;;;;;7.43;6.35;;;;;;;;;;5026771;27;100289;-80
2023/05/10 10:42:06;;;;;;;8.75;6.22;;;;;;;;;;5022448;28;99698;-81
2023/05/10 10:44:33;;;;;;;6.50;5.90;;;;;;;;;;5025100;28;100266;-78
2023/05/10 10:47:09;;;;;;;8.68;6.28;;;;;;;;;;5012669;28;98945;-76
2023/05/10 10:49:43;;;;;;;6.50;5.72;;;;;;;;;;5017225;28;100854;-80
2023/05/10 10:52:16;;;;;;;7.82;6.28;;;;;;;;;;5009360;28;100341;-81
2023/05/10 10:54:49;;;;;;;6.35;5.75;;;;;;;;;;5026348;28;99302;-80
2023/05/10 10:57:17;;;;;;;7.03;6.32;;;;;;;;;;5012584;28;99410;-81
2023/05/10 10:59:45;;;;;;;6.75;6.05;;;;;;;;;;5019621;28;99096;-80
2023/05/10 11:02:30;;;;;;;6.60;5.10;;;;;;;;;;5009922;27;99285;-80
2023/05/10 11:04:56;;;;;;;9.88;4.90;;;;;;;;;;5016048;27;100968;-81
2023/05/10 11:07:23;;;;;;;5.65;4.63;;;;;;;;;;5020012;28;100041;-81
2023/05/10 11:09:49;;;;;;;5.63;5.03;;;;;;;;;;5024362;28;100750;-80
2023/05/10 11:12:16;;;;;;;5.65;5.25;;;;;;;;;;5024363;28;100624;-81
2023/05/10 11:14:42;;;;;;;7.22;5.75;;;;;;;;;;5022983;28;100251;-79
2023/05/10 11:17:28;;;;;;;6.82;5.32;;;;;;;;;;5020833;27;99664;-79
2023/05/10 11:20:11;;;;;;;6.60;5.95;;;;;;;;;;5009034;28;99348;-80
2023/05/10 11:22:54;;;;;;;6.85;6.25;;;;;;;;;;5009375;28;100148;-80
2023/05/10 11:25:26;;;;;;;6.28;5.68;;;;;;;;;;5010456;28;98408;-80
2023/05/10 11:27:53;;;;;;;8.60;5.53;;;;;;;;;;5010093;28;99332;-81
2023/05/10 11:30:21;;;;;;;9.52;5.93;;;;;;;;;;5006936;28;99029;-80
2023/05/10 11:32:47;;;;;;;7.13;6.13;;;;;;;;;;5007914;28;100985;-81
2023/05/10 11:35:15;;;;;;;6.15;5.65;;;;;;;;;;5026216;28;99053;-81
2023/05/10 11:37:43;;;;;;;6.90;6.20;;;;;;;;;;5031645;28;99088;-80
2023/05/10 11:40:10;;;;;;;5.95;5.35;;;;;;;;;;5028906;28;101362;-80
2023/05/10 11:42:37;;;;;;;5.05;4.03;;;;;;;;;;5029212;28;99894;-81
2023/05/10 11:45:04;;;;;;;9.15;4.88;;;;;;;;;;5028614;28;100135;-81
2023/05/10 11:47:31;;;;;;;5.70;5.13;;;;;;;;;;5028985;28;98800;-81
2023/05/10 11:49:57;;;;;;;5.40;4.90;;;;;;;;;;5029975;28;99812;-82
2023/05/10 11:52:25;;;;;;;4.93;4.50;;;;;;;;;;5029206;28;99350;-80
2023/05/10 11:54:54;;;;;;;5.70;5.13;;;;;;;;;;5029326;27;100421;-81
2023/05/10 11:57:25;;;;;;;6.68;4.80;;;;;;;;;;5029062;28;99932;-81
2023/05/10 12:02:48;;;;;;;5.20;4.80;;;;;;;;;;5028246;28;101822;-80
2023/05/10 12:05:14;;;;;;;5.18;4.78;;;;;;;;;;5008391;28;101010;-81
2023/05/10 12:07:41;;;;;;;7.38;4.35;;;;;;;;;;5008006;28;99957;-81
2023/05/10 12:10:09;;;;;;;4.43;3.95;;;;;;;;;;5009996;28;100185;-81
2023/05/10 12:12:41;;;;;;;5.55;4.50;;;;;;;;;;5008428;28;100226;-80
2023/05/10 12:15:12;;;;;;;4.53;3.97;;;;;;;;;;4993060;28;100054;-81
2023/05/10 12:17:40;;;;;;;6.95;4.32;;;;;;;;;;5010816;28;99054;-82
2023/05/10 12:20:16;;;;;;;4.68;4.10;;;;;;;;;;5013331;28;100429;-81
2023/05/10 12:22:46;;;;;;;3.95;3.55;;;;;;;;;;5009136;28;99294;-81
2023/05/10 12:25:21;;;;;;;4.72;3.90;;;;;;;;;;5010244;28;99658;-82
2023/05/10 12:27:56;;;;;;;5.55;3.75;;;;;;;;;;5009925;28;99876;-81
2023/05/10 12:30:23;;;;;;;6.93;4.13;;;;;;;;;;5008480;28;98921;-81
2023/05/10 12:32:57;;;;;;;3.70;3.42;;;;;;;;;;5009926;28;99414;-80
2023/05/10 12:35:29;;;;;;;7.13;3.85;;;;;;;;;;5021140;28;99195;-80
2023/05/10 12:37:59;;;;;;;;;;;;;;;;;;5012986;28;99087;-81
2023/05/10 12:40:31;;;;;;;5.45;3.30;;;;;;;;;;5031042;28;98073;-80
2023/05/10 12:43:00;;;;;;;6.22;4.18;;;;;;;;;;5034408;28;100039;-81
2023/05/10 12:45:30;;;;;;;4.18;3.78;;;;;;;;;;5031468;28;99274;-80
2023/05/10 12:47:58;;;;;;;3.72;3.47;;;;;;;;;;5031142;28;99321;-80
2023/05/10 12:50:28;;;;;;;4.50;2.60;;;;;;;;;;5031793;28;99639;-81
2023/05/10 12:52:56;;;;;;;2.85;2.42;;;;;;;;;;5031681;28;100205;-80
2023/05/10 12:55:25;;;;;;;5.97;2.78;;;;;;;;;;5026309;28;100401;-82
2023/05/10 12:57:52;;;;;;;5.18;2.50;;;;;;;;;;5030739;28;99972;-82
2023/05/10 13:00:18;;;;;;;1.85;1.75;;;;;;;;;;5030037;28;99386;-80
2023/05/10 13:02:45;;;;;;;2.88;1.80;;;;;;;;;;5027130;28;100102;-81
2023/05/10 13:05:14;;;;;;;2.40;2.20;;;;;;;;;;5035661;28;100422;-81
2023/05/10 13:07:43;;;;;;;3.78;2.00;;;;;;;;;;5031005;28;101052;-82
2023/05/10 13:10:10;;;;;;;1.52;1.42;;;;;;;;;;5029966;28;99996;-82
2023/05/10 13:12:43;;;;;;;3.97;1.75;;;;;;;;;;5030230;28;101639;-79
2023/05/10 13:15:14;;;;;;;2.00;1.90;;;;;;;;;;5025488;27;100767;-81
2023/05/10 13:17:48;;;;;;;1.80;1.70;;;;;;;;;;5010134;28;98523;-82
2023/05/10 13:20:17;;;;;;;4.60;2.10;;;;;;;;;;5004651;28;100193;-82
2023/05/10 13:22:44;;;;;;;3.53;2.63;;;;;;;;;;5004901;28;99896;-81
2023/05/10 13:25:11;;;;;;;5.60;2.45;;;;;;;;;;5004195;28;99914;-81
2023/05/10 13:27:38;;;;;;;2.70;1.90;;;;;;;;;;4990465;28;100345;-81
2023/05/10 13:30:05;;;;;;;5.18;4.68;;;;;;;;;;5004465;28;99358;-82
2023/05/10 13:32:32;;;;;;;9.70;6.68;;;;;;;;;;5004768;28;100236;-81
2023/05/10 13:34:59;;;;;;;8.48;6.97;;;;;;;;;;5003755;28;98945;-81
2023/05/10 13:37:25;;;;;;;12.93;8.00;;;;;;;;;;5003845;28;100248;-81
2023/05/10 13:39:51;;;;;;;13.50;8.25;;;;;;;;;;5005248;28;100215;-83
2023/05/10 13:42:18;;;;;;;10.48;7.85;;;;;;;;;;5006655;28;99597;-82
2023/05/10 13:44:44;;;;;;;11.98;7.90;;;;;;;;;;5008167;28;99938;-81
2023/05/10 13:47:11;;;;;;;13.68;8.00;;;;;;;;;;5008484;28;100213;-81
2023/05/10 13:49:37;;;;;;;12.65;8.43;;;;;;;;;;5010491;28;99148;-83
2023/05/10 13:52:06;;;;;;;10.90;8.70;;;;;;;;;;5006690;28;99997;-82
2023/05/10 13:54:33;;;;;;;14.35;9.30;;;;;;;;;;5007360;28;99166;-82
2023/05/10 13:57:00;;;;;;;12.45;9.02;;;;;;;;;;5008432;28;99535;-81
2023/05/10 13:59:27;;;;;;;13.98;8.77;;;;;;;;;;5006809;28;99566;-82
2023/05/10 14:01:53;;;;;;;15.65;9.10;;;;;;;;;;5006700;28;100358;-81
2023/05/10 14:04:20;;;;;;;14.02;8.85;;;;;;;;;;5006619;28;99797;-80
2023/05/10 14:06:46;;;;;;;12.63;8.63;;;;;;;;;;4988677;28;99222;-82
2023/05/10 14:09:13;;;;;;;9.75;8.15;;;;;;;;;;5007319;28;99060;-82
2023/05/10 14:11:42;;;;;;;13.00;8.68;;;;;;;;;;5009765;28;100361;-82
2023/05/10 14:14:09;;;;;;;12.50;8.73;;;;;;;;;;5007324;28;99912;-82
2023/05/10 14:16:35;;;;;;;9.82;7.53;;;;;;;;;;5008004;28;100214;-81
2023/05/10 14:19:02;;;;;;;12.55;8.57;;;;;;;;;;5007364;28;98615;-82
2023/05/10 14:21:32;;;;;;;12.10;7.88;;;;;;;;;;5006712;28;99947;-82